Bethel, Washington
Current Conditions -  °F | °C
As of 3:58 PM on Sunday 21 Dec 2014 (Local Time) from KTCM Reporting Station
Scattered Clouds Scattered Clouds  
Wind Chill: 51°   Ceiling: Unl
Heat Index: 51°   Visibility: 10mi
Dew Point: 47°   Wind: 13mph
Humidity: 85%   Direction: 210°SSW
Pressure: 30.03"   Gusts: NA
Location:  47.0761°N, 122.396°W
Report Text: KTCM 212358Z AUTO 21011KT 10SM FEW065 SCT120 11/08 A3003 RMK AO2 SLP174 60000 T01060081 10128 20106 50016
Loading
Personal Weather Stations






























Interactive Weather Map New forecast layout! Learn more

10-Day Weather Forecast

Advertisements
Track Severe Weather on mobile